Terminal Aerodrome Forecast
Issued by NWS

Home | Current Version | Previous Version | Text Only | Print | Product List | Glossary On
Versions: 1 2 3 4 5 6 7 8 9 10 11 12 13 14 15 16 17 18 19 20 21 22 23 24
000
FTUS45 KVEF 192320
TAFLAS
TAF
KLAS 192320Z 2000/2106 15011KT P6SM FEW130
     FM200300 20010KT P6SM SKC
     FM200800 22006KT P6SM SKC
     FM201900 09007KT P6SM SCT130
     FM202100 16011KT P6SM SCT130
     FM210200 21009KT P6SM BKN130=

USA.gov is the U.S. government's official web portal to all federal, state and local government web resources and services.